Time;durP1;ratioP1;P1;durP2;ratioP2;P2;SDS_P1;SDS_P2;PMS_P1;PMS_P2;Temp;Humidity;BMP_temperature;BMP_pressure;BME280_temperature;BME280_humidity;BME280_pressure;Samples;Min_cycle;Max_cycle;Signal;HPM_P1;HPM_P2
2023/12/11 00:00:14;;;;;;;0.40;0.40;;;9.00;99.90;;;;;;5113966;27;20646;-80
2023/12/11 00:02:39;;;;;;;0.30;0.30;;;9.00;99.90;;;;;;5091006;27;20042;-79
2023/12/11 00:05:05;;;;;;;0.50;0.50;;;8.90;99.90;;;;;;5129009;27;20079;-81
2023/12/11 00:07:31;;;;;;;0.73;0.73;;;8.80;99.90;;;;;;5110334;27;20049;-81
2023/12/11 00:09:57;;;;;;;0.95;0.95;;;8.80;99.90;;;;;;5130238;27;20042;-81
2023/12/11 00:12:22;;;;;;;0.40;0.40;;;8.70;99.90;;;;;;5132399;27;20043;-81
2023/12/11 00:14:48;;;;;;;4.43;4.05;;;8.70;99.90;;;;;;5129145;27;20043;-79
2023/12/11 00:17:14;;;;;;;0.45;0.45;;;8.70;99.90;;;;;;5128519;27;20039;-81
2023/12/11 00:19:39;;;;;;;1.85;1.75;;;8.60;99.90;;;;;;5130049;27;20054;-80
2023/12/11 00:22:05;;;;;;;0.50;0.50;;;8.50;99.90;;;;;;5111726;27;20035;-79
2023/12/11 00:24:31;;;;;;;0.45;0.45;;;8.50;99.90;;;;;;5112811;27;20311;-78
2023/12/11 00:26:56;;;;;;;0.70;0.70;;;8.60;99.90;;;;;;5130564;27;20122;-79
2023/12/11 00:29:22;;;;;;;0.40;0.40;;;8.60;99.90;;;;;;5132213;27;20488;-78
2023/12/11 00:31:48;;;;;;;0.50;0.50;;;8.40;99.90;;;;;;5112137;27;20039;-79
2023/12/11 00:34:14;;;;;;;0.40;0.40;;;8.40;99.90;;;;;;5130705;27;20135;-80
2023/12/11 00:36:42;;;;;;;0.50;0.50;;;8.60;99.90;;;;;;5130435;27;20141;-79
2023/12/11 00:39:08;;;;;;;3.88;0.55;;;8.40;99.90;;;;;;5105969;27;20042;-79
2023/12/11 00:41:34;;;;;;;0.70;0.70;;;8.40;99.90;;;;;;5112302;27;20039;-79
2023/12/11 00:44:00;;;;;;;;;;;8.30;99.90;;;;;;5131630;27;20518;-80
2023/12/11 00:46:25;;;;;;;0.40;0.40;;;8.30;99.90;;;;;;5132503;27;19963;-78
2023/12/11 00:48:51;;;;;;;1.15;0.43;;;8.40;99.90;;;;;;5129442;27;20373;-78
2023/12/11 00:51:21;;;;;;;0.55;0.55;;;8.40;99.90;;;;;;5127996;27;20042;-80
2023/12/11 00:53:47;;;;;;;0.90;0.90;;;8.40;99.90;;;;;;5129710;27;20631;-80
2023/12/11 00:56:13;;;;;;;0.95;0.95;;;8.40;99.90;;;;;;5135710;27;20042;-78
2023/12/11 00:58:39;;;;;;;;;;;8.50;99.90;;;;;;5132597;27;20035;-79
2023/12/11 01:01:06;;;;;;;0.50;0.50;;;8.50;99.90;;;;;;5128506;27;19923;-80
2023/12/11 01:03:33;;;;;;;0.40;0.40;;;8.50;99.90;;;;;;5129701;27;20066;-78
2023/12/11 01:05:59;;;;;;;0.40;0.40;;;8.60;99.90;;;;;;5130215;27;20040;-78
2023/12/11 01:08:27;;;;;;;0.88;0.88;;;8.70;99.90;;;;;;5134531;27;20050;-78
2023/12/11 01:10:57;;;;;;;0.57;0.57;;;8.80;99.90;;;;;;5129058;27;20042;-80
2023/12/11 01:13:24;;;;;;;0.40;0.40;;;8.90;99.90;;;;;;5128127;27;20411;-80
2023/12/11 01:15:50;;;;;;;0.40;0.40;;;9.00;99.90;;;;;;5127794;27;20138;-78
2023/12/11 01:18:15;;;;;;;4.25;3.85;;;8.90;99.90;;;;;;5128847;27;20125;-77
2023/12/11 01:20:41;;;;;;;3.13;0.98;;;8.80;99.90;;;;;;5129668;27;20046;-78
2023/12/11 01:23:07;;;;;;;0.40;0.40;;;8.90;99.90;;;;;;5128656;27;20040;-80
2023/12/11 01:25:33;;;;;;;0.38;0.38;;;9.00;99.90;;;;;;5111224;28;20078;-78
2023/12/11 01:27:59;;;;;;;0.30;0.30;;;8.90;99.90;;;;;;5131764;27;20500;-78
2023/12/11 01:30:24;;;;;;;0.30;0.30;;;8.90;99.90;;;;;;5129263;27;20050;-78
2023/12/11 01:32:50;;;;;;;0.40;0.40;;;9.00;99.90;;;;;;5094551;28;20047;-78
2023/12/11 01:35:16;;;;;;;0.40;0.40;;;8.80;99.90;;;;;;5127812;28;20035;-79
2023/12/11 01:37:44;;;;;;;0.40;0.40;;;8.80;99.90;;;;;;5132347;27;20054;-76
2023/12/11 01:40:11;;;;;;;0.40;0.40;;;8.90;99.90;;;;;;5128276;27;20050;-78
2023/12/11 01:42:36;;;;;;;1.33;1.15;;;8.70;99.90;;;;;;5129589;27;20389;-77
2023/12/11 01:45:02;;;;;;;4.88;2.25;;;8.80;99.90;;;;;;5130379;27;20042;-78
2023/12/11 01:47:28;;;;;;;0.70;0.70;;;8.90;99.90;;;;;;5114632;28;20043;-77
2023/12/11 01:49:54;;;;;;;17.77;3.88;;;8.90;99.90;;;;;;5128701;27;20047;-78
2023/12/11 01:52:21;;;;;;;0.40;0.40;;;8.80;99.90;;;;;;5127711;27;20071;-77
2023/12/11 01:54:47;;;;;;;0.40;0.40;;;8.80;99.90;;;;;;5130577;27;20046;-77
2023/12/11 01:57:13;;;;;;;0.40;0.40;;;8.80;99.90;;;;;;5135641;27;20047;-80
2023/12/11 01:59:39;;;;;;;0.40;0.40;;;8.80;99.90;;;;;;5134519;27;20050;-79
2023/12/11 02:02:05;;;;;;;;;;;8.80;99.90;;;;;;5129578;27;20041;-77
2023/12/11 02:04:31;;;;;;;0.40;0.40;;;8.90;99.90;;;;;;5133234;27;19919;-80
2023/12/11 02:06:57;;;;;;;0.50;0.50;;;8.90;99.90;;;;;;5138136;27;20034;-78
2023/12/11 02:09:23;;;;;;;;;;;8.90;99.90;;;;;;5134958;27;20052;-78
2023/12/11 02:11:50;;;;;;;0.40;0.40;;;9.10;99.90;;;;;;5131468;27;19922;-79
2023/12/11 02:14:15;;;;;;;4.78;2.42;;;8.80;99.90;;;;;;5132613;27;20046;-77
2023/12/11 02:16:41;;;;;;;0.40;0.40;;;9.00;99.90;;;;;;5135419;27;20465;-78
2023/12/11 02:19:07;;;;;;;1.50;1.40;;;8.80;99.90;;;;;;5132761;27;20043;-79
2023/12/11 02:21:34;;;;;;;0.40;0.40;;;8.70;99.90;;;;;;5116316;27;20031;-78
2023/12/11 02:24:08;;;;;;;0.40;0.40;;;8.80;99.90;;;;;;5099472;27;20118;-77
2023/12/11 02:26:33;;;;;;;0.57;0.57;;;8.70;99.90;;;;;;5132832;27;20089;-77
2023/12/11 02:28:59;;;;;;;0.30;0.30;;;8.60;99.90;;;;;;5133577;27;20066;-76
2023/12/11 02:31:25;;;;;;;0.30;0.30;;;8.70;99.90;;;;;;5134654;27;20050;-76
2023/12/11 02:33:50;;;;;;;0.50;0.50;;;8.60;99.90;;;;;;5133914;27;20049;-78
2023/12/11 02:36:16;;;;;;;0.43;0.43;;;8.70;99.90;;;;;;5099239;27;20039;-78
2023/12/11 02:38:42;;;;;;;0.50;0.50;;;8.60;99.90;;;;;;5134838;27;20416;-76
2023/12/11 02:41:08;;;;;;;0.40;0.40;;;8.60;99.90;;;;;;5115166;27;20096;-78
2023/12/11 02:43:34;;;;;;;0.60;0.60;;;8.70;99.90;;;;;;5130663;27;20415;-77
2023/12/11 02:46:00;;;;;;;0.40;0.40;;;8.80;99.90;;;;;;5135470;27;20096;-78
2023/12/11 02:48:26;;;;;;;0.82;0.82;;;8.70;99.90;;;;;;5118599;27;20035;-75
2023/12/11 02:50:51;;;;;;;0.50;0.50;;;8.60;99.90;;;;;;5117162;27;20556;-78
2023/12/11 02:53:17;;;;;;;0.40;0.40;;;8.60;99.90;;;;;;5131964;27;20035;-76
2023/12/11 02:55:43;;;;;;;0.40;0.40;;;8.70;99.90;;;;;;5130554;27;20404;-78
2023/12/11 02:58:08;;;;;;;1.05;0.52;;;8.60;99.90;;;;;;5137614;27;20061;-77
2023/12/11 03:00:35;;;;;;;0.50;0.50;;;8.80;99.90;;;;;;5119466;27;20050;-77
2023/12/11 03:03:01;;;;;;;0.50;0.50;;;8.70;99.90;;;;;;5131548;27;20066;-77
2023/12/11 03:05:27;;;;;;;0.30;0.30;;;8.80;99.90;;;;;;5114060;27;20459;-79
2023/12/11 03:07:52;;;;;;;0.50;0.50;;;8.90;99.90;;;;;;5140379;27;20084;-80
2023/12/11 03:10:18;;;;;;;0.50;0.50;;;8.90;99.90;;;;;;5134966;27;20051;-80
2023/12/11 03:12:44;;;;;;;1.05;1.05;;;8.90;99.90;;;;;;5137257;27;20043;-79
2023/12/11 03:15:10;;;;;;;0.40;0.40;;;8.70;99.90;;;;;;5133746;27;20062;-79
2023/12/11 03:17:36;;;;;;;;;;;9.00;99.90;;;;;;5133929;27;20050;-80
2023/12/11 03:20:02;;;;;;;0.40;0.40;;;8.90;99.90;;;;;;5117220;27;20287;-80
2023/12/11 03:22:28;;;;;;;0.70;0.70;;;9.00;99.90;;;;;;5114325;27;20508;-80
2023/12/11 03:24:55;;;;;;;0.50;0.50;;;8.80;99.90;;;;;;5117660;27;20508;-79
2023/12/11 03:27:24;;;;;;;0.75;0.75;;;8.90;99.90;;;;;;5114149;27;20046;-77
2023/12/11 03:29:50;;;;;;;0.35;0.35;;;8.90;99.90;;;;;;5131025;27;20035;-79
2023/12/11 03:32:15;;;;;;;0.47;0.47;;;8.90;99.90;;;;;;5130588;27;20407;-79
2023/12/11 03:34:42;;;;;;;0.60;0.60;;;8.90;99.90;;;;;;5113863;27;20054;-78
2023/12/11 03:37:08;;;;;;;2.35;0.82;;;9.10;99.90;;;;;;5114699;27;20388;-77
2023/12/11 03:39:34;;;;;;;0.65;0.65;;;8.80;99.90;;;;;;5116733;27;20050;-78
2023/12/11 03:42:00;;;;;;;1.45;0.85;;;8.90;99.90;;;;;;5131089;27;20043;-79
2023/12/11 03:44:25;;;;;;;0.68;0.68;;;9.10;99.90;;;;;;5130187;27;20492;-78
2023/12/11 03:46:51;;;;;;;0.30;0.30;;;8.90;99.90;;;;;;5091998;27;20042;-80
2023/12/11 03:49:18;;;;;;;0.50;0.50;;;8.90;99.90;;;;;;5128834;27;20061;-78
2023/12/11 03:51:44;;;;;;;1.20;1.20;;;9.00;99.90;;;;;;5130162;27;20121;-81
2023/12/11 03:54:10;;;;;;;0.80;0.80;;;9.00;99.90;;;;;;5129632;27;20604;-80
2023/12/11 03:56:35;;;;;;;0.77;0.77;;;9.00;99.90;;;;;;5130122;27;20142;-81
2023/12/11 03:59:01;;;;;;;0.38;0.38;;;9.00;99.90;;;;;;5112502;27;20211;-79
2023/12/11 04:01:27;;;;;;;0.30;0.30;;;9.10;99.90;;;;;;5133356;27;20098;-77
2023/12/11 04:03:53;;;;;;;0.40;0.40;;;9.00;99.90;;;;;;5112908;27;20050;-80
2023/12/11 04:06:19;;;;;;;;;;;9.00;99.90;;;;;;5131540;27;20047;-77
2023/12/11 04:08:44;;;;;;;0.32;0.32;;;9.00;99.90;;;;;;5130712;27;19916;-80
2023/12/11 04:11:10;;;;;;;0.38;0.38;;;9.10;99.90;;;;;;5130048;27;20050;-78
2023/12/11 04:13:36;;;;;;;2.88;2.67;;;9.00;99.90;;;;;;5129646;27;20541;-79
2023/12/11 04:16:03;;;;;;;0.43;0.43;;;9.50;99.90;;;;;;5130723;27;20058;-80
2023/12/11 04:18:35;;;;;;;1.65;1.05;;;9.40;99.90;;;;;;5132649;27;20031;-79
2023/12/11 04:21:01;;;;;;;0.70;0.70;;;9.10;99.90;;;;;;5132541;27;20041;-77
2023/12/11 04:23:26;;;;;;;1.48;1.48;;;9.00;99.90;;;;;;5130628;27;20043;-80
2023/12/11 04:25:54;;;;;;;0.88;0.88;;;9.00;99.90;;;;;;5126644;27;20039;-77
2023/12/11 04:28:20;;;;;;;0.60;0.60;;;9.10;99.90;;;;;;5114326;27;20127;-77
2023/12/11 04:30:46;;;;;;;;;;;9.20;99.90;;;;;;5113682;27;20095;-78
2023/12/11 04:33:11;;;;;;;0.95;0.95;;;9.20;99.90;;;;;;5129621;27;19930;-79
2023/12/11 04:35:37;;;;;;;0.40;0.40;;;9.10;99.90;;;;;;5112517;27;20047;-78
2023/12/11 04:38:03;;;;;;;0.40;0.40;;;9.10;99.90;;;;;;5128769;27;20050;-77
2023/12/11 04:40:29;;;;;;;4.28;1.42;;;9.10;99.90;;;;;;5112317;27;20034;-78
2023/12/11 04:42:55;;;;;;;2.63;1.75;;;9.00;99.90;;;;;;5125794;27;20491;-80
2023/12/11 04:45:20;;;;;;;1.20;1.20;;;9.00;99.90;;;;;;5128242;27;20087;-77
2023/12/11 04:47:46;;;;;;;0.40;0.40;;;9.10;99.90;;;;;;5115807;27;20038;-77
2023/12/11 04:50:12;;;;;;;0.30;0.30;;;8.90;99.90;;;;;;5128322;27;20406;-79
2023/12/11 04:52:37;;;;;;;0.40;0.40;;;9.00;99.90;;;;;;5130999;27;20039;-78
2023/12/11 04:55:03;;;;;;;2.97;0.63;;;9.00;99.90;;;;;;5128324;27;20126;-79
2023/12/11 04:57:29;;;;;;;1.27;1.23;;;9.10;99.90;;;;;;5128693;27;20036;-78
2023/12/11 04:59:55;;;;;;;0.40;0.40;;;9.00;99.90;;;;;;5110930;27;20510;-78
2023/12/11 05:02:20;;;;;;;0.40;0.40;;;9.10;99.90;;;;;;5094572;27;20038;-78
2023/12/11 05:04:46;;;;;;;1.02;1.02;;;9.10;99.90;;;;;;5112277;27;20116;-77
2023/12/11 05:07:12;;;;;;;0.40;0.40;;;9.10;99.90;;;;;;5129155;27;20051;-78
2023/12/11 05:09:37;;;;;;;4.07;2.58;;;9.00;99.90;;;;;;5093842;27;20074;-77
2023/12/11 05:12:03;;;;;;;0.35;0.35;;;9.00;99.90;;;;;;5127932;27;20081;-78
2023/12/11 05:14:29;;;;;;;0.75;0.75;;;9.00;99.90;;;;;;5126997;27;20113;-77
2023/12/11 05:16:55;;;;;;;0.40;0.40;;;8.90;99.90;;;;;;5127911;27;20064;-78
2023/12/11 05:19:20;;;;;;;0.40;0.40;;;9.00;99.90;;;;;;5128004;27;20055;-77
2023/12/11 05:21:46;;;;;;;0.57;0.57;;;9.00;99.90;;;;;;5128270;27;20384;-78
2023/12/11 05:24:12;;;;;;;0.40;0.40;;;9.00;99.90;;;;;;5115513;27;20146;-77
2023/12/11 05:26:38;;;;;;;0.50;0.50;;;8.90;99.90;;;;;;5135277;27;20146;-78
2023/12/11 05:29:04;;;;;;;6.90;2.80;;;9.00;99.90;;;;;;5130307;27;20488;-79
2023/12/11 05:31:31;;;;;;;0.45;0.45;;;8.90;99.90;;;;;;5130483;27;20035;-79
2023/12/11 05:33:56;;;;;;;0.30;0.30;;;8.90;99.90;;;;;;5128226;27;20103;-78
2023/12/11 05:36:22;;;;;;;0.40;0.40;;;9.00;99.90;;;;;;5132339;27;20047;-78
2023/12/11 05:38:48;;;;;;;0.40;0.40;;;8.90;99.90;;;;;;5124834;27;20046;-76
2023/12/11 05:41:14;;;;;;;2.58;2.42;;;8.90;99.90;;;;;;5126675;28;20505;-76
2023/12/11 05:43:40;;;;;;;0.30;0.30;;;8.90;99.90;;;;;;5113824;27;20043;-79
2023/12/11 05:46:09;;;;;;;0.38;0.38;;;8.90;99.90;;;;;;5127639;27;20135;-77
2023/12/11 05:48:34;;;;;;;0.60;0.60;;;8.90;99.90;;;;;;5111737;27;20134;-78
2023/12/11 05:51:00;;;;;;;0.43;0.43;;;9.00;99.90;;;;;;5126883;28;20118;-77
2023/12/11 05:53:26;;;;;;;0.40;0.40;;;8.90;99.90;;;;;;5109857;28;20047;-77
2023/12/11 05:55:51;;;;;;;0.40;0.40;;;8.90;99.90;;;;;;5130120;27;20548;-77
2023/12/11 05:58:17;;;;;;;0.47;0.47;;;9.00;99.90;;;;;;5126726;27;20031;-79
2023/12/11 06:00:44;;;;;;;0.40;0.40;;;9.00;99.90;;;;;;5110609;27;20471;-77
2023/12/11 06:03:10;;;;;;;0.70;0.70;;;9.00;99.90;;;;;;5130934;27;20508;-76
2023/12/11 06:05:36;;;;;;;0.40;0.40;;;9.00;99.90;;;;;;5127441;27;20074;-77
2023/12/11 06:08:02;;;;;;;0.40;0.40;;;9.00;99.90;;;;;;5132964;27;20043;-78
2023/12/11 06:10:28;;;;;;;0.30;0.30;;;8.80;99.90;;;;;;5133973;27;20067;-78
2023/12/11 06:12:53;;;;;;;0.50;0.50;;;8.90;99.90;;;;;;5128183;27;20416;-79
2023/12/11 06:15:19;;;;;;;0.50;0.50;;;8.80;99.90;;;;;;5127514;27;20104;-79
2023/12/11 06:17:45;;;;;;;0.50;0.50;;;9.00;99.90;;;;;;5127493;27;20042;-76
2023/12/11 06:20:11;;;;;;;0.90;0.90;;;8.80;99.90;;;;;;5128142;27;20027;-79
2023/12/11 06:22:36;;;;;;;0.40;0.40;;;8.80;99.90;;;;;;5110613;28;20064;-78
2023/12/11 06:25:02;;;;;;;0.90;0.88;;;8.70;99.90;;;;;;5126980;27;20043;-77
2023/12/11 06:27:28;;;;;;;0.40;0.40;;;8.80;99.90;;;;;;5127398;27;20097;-80
2023/12/11 06:29:55;;;;;;;0.40;0.40;;;8.80;99.90;;;;;;5131160;27;20090;-80
2023/12/11 06:32:21;;;;;;;0.77;0.77;;;8.80;99.90;;;;;;5096727;27;20039;-80
2023/12/11 06:34:47;;;;;;;0.40;0.40;;;8.80;99.90;;;;;;5131907;27;20088;-81
2023/12/11 06:37:12;;;;;;;0.88;0.88;;;8.80;99.90;;;;;;5092315;28;20035;-78
2023/12/11 06:39:38;;;;;;;0.90;0.73;;;8.70;99.90;;;;;;5128790;27;20050;-78
2023/12/11 06:42:04;;;;;;;0.60;0.60;;;8.60;99.90;;;;;;5126765;27;20058;-79
2023/12/11 06:44:30;;;;;;;0.50;0.50;;;8.70;99.90;;;;;;5129979;27;20130;-79
2023/12/11 06:46:56;;;;;;;0.50;0.50;;;8.80;99.90;;;;;;5127989;27;20534;-79
2023/12/11 06:49:22;;;;;;;1.48;1.38;;;8.60;99.90;;;;;;5128211;27;20039;-77
2023/12/11 06:51:48;;;;;;;2.13;0.80;;;8.80;99.90;;;;;;5129804;27;20028;-78
2023/12/11 06:54:15;;;;;;;0.38;0.38;;;8.70;99.90;;;;;;5129908;27;20074;-78
2023/12/11 06:56:40;;;;;;;;;;;8.60;99.90;;;;;;5134394;27;20088;-80
2023/12/11 06:59:07;;;;;;;0.40;0.40;;;8.70;99.90;;;;;;5131307;27;20368;-79
2023/12/11 07:01:33;;;;;;;0.40;0.40;;;8.70;99.90;;;;;;5131266;27;20039;-79
2023/12/11 07:03:59;;;;;;;0.40;0.40;;;8.60;99.90;;;;;;5130147;27;20051;-77
2023/12/11 07:06:25;;;;;;;0.30;0.30;;;8.70;99.90;;;;;;5131809;27;20122;-78
2023/12/11 07:08:51;;;;;;;0.55;0.45;;;8.50;99.90;;;;;;5134656;27;20123;-77
2023/12/11 07:11:17;;;;;;;0.40;0.40;;;8.60;99.90;;;;;;5132418;27;20043;-79
2023/12/11 07:13:43;;;;;;;;;;;8.60;99.90;;;;;;5109757;27;20055;-81
2023/12/11 07:16:09;;;;;;;0.95;0.95;;;8.80;99.90;;;;;;5120726;27;20399;-80
2023/12/11 07:18:35;;;;;;;0.50;0.50;;;8.70;99.90;;;;;;5128877;27;20065;-77
2023/12/11 07:21:01;;;;;;;0.43;0.43;;;8.70;99.90;;;;;;5128446;27;20047;-80
2023/12/11 07:23:26;;;;;;;0.50;0.50;;;8.60;99.90;;;;;;5112437;27;20035;-80
2023/12/11 07:25:52;;;;;;;0.45;0.45;;;8.90;99.90;;;;;;5131039;27;20502;-79
2023/12/11 07:28:18;;;;;;;0.40;0.40;;;8.70;99.90;;;;;;5142587;27;20111;-79
2023/12/11 07:30:44;;;;;;;0.47;0.47;;;8.70;99.90;;;;;;5113391;27;20113;-79
2023/12/11 07:33:10;;;;;;;0.35;0.35;;;8.70;99.90;;;;;;5139165;27;20049;-79
2023/12/11 07:35:38;;;;;;;0.40;0.40;;;8.80;99.90;;;;;;5133183;27;20035;-78
2023/12/11 07:38:05;;;;;;;0.40;0.40;;;8.60;99.90;;;;;;5114670;27;20047;-78
2023/12/11 07:40:31;;;;;;;0.60;0.60;;;8.70;99.90;;;;;;5134131;27;20038;-78
2023/12/11 07:42:57;;;;;;;0.40;0.40;;;8.60;99.90;;;;;;5121329;27;20054;-79
2023/12/11 07:45:24;;;;;;;0.47;0.47;;;8.70;99.90;;;;;;5099048;27;20433;-79
2023/12/11 07:47:49;;;;;;;0.40;0.40;;;8.60;99.90;;;;;;5120735;27;20110;-79
2023/12/11 07:50:15;;;;;;;0.40;0.40;;;8.70;99.90;;;;;;5132156;27;20078;-79
2023/12/11 07:52:41;;;;;;;0.40;0.40;;;8.60;99.90;;;;;;5119888;27;20600;-79
2023/12/11 07:55:07;;;;;;;0.40;0.40;;;8.80;99.90;;;;;;5115063;27;20092;-76
2023/12/11 07:57:33;;;;;;;1.42;0.45;;;8.70;99.90;;;;;;5136252;27;20042;-81
2023/12/11 07:59:59;;;;;;;0.68;0.68;;;8.60;99.90;;;;;;5143821;27;20514;-81
2023/12/11 08:02:25;;;;;;;0.45;0.45;;;8.70;99.90;;;;;;5106668;27;20035;-83
2023/12/11 08:04:51;;;;;;;0.65;0.65;;;8.60;99.90;;;;;;5102678;27;20054;-82
2023/12/11 08:07:18;;;;;;;0.40;0.40;;;8.70;99.90;;;;;;5125575;27;20415;-78
2023/12/11 08:09:44;;;;;;;0.50;0.50;;;8.70;99.90;;;;;;5128133;27;20043;-80
2023/12/11 08:12:10;;;;;;;0.40;0.40;;;8.70;99.90;;;;;;5128760;27;20122;-80
2023/12/11 08:14:37;;;;;;;0.40;0.40;;;8.70;99.90;;;;;;5113372;27;20059;-81
2023/12/11 08:17:04;;;;;;;0.40;0.40;;;8.70;99.90;;;;;;5111751;27;20158;-79
2023/12/11 08:19:32;;;;;;;0.43;0.43;;;8.70;99.90;;;;;;5112682;27;20043;-81
2023/12/11 08:21:57;;;;;;;0.40;0.40;;;8.80;99.90;;;;;;5124491;27;20123;-83
2023/12/11 08:24:23;;;;;;;0.40;0.40;;;8.70;99.90;;;;;;5113887;27;20117;-79
2023/12/11 08:26:49;;;;;;;0.40;0.40;;;8.70;99.90;;;;;;5111815;27;20098;-80
2023/12/11 08:29:16;;;;;;;0.40;0.40;;;8.80;99.90;;;;;;5112565;27;20420;-80
2023/12/11 08:31:43;;;;;;;1.20;1.20;;;8.60;99.90;;;;;;5132201;27;20043;-81
2023/12/11 08:34:09;;;;;;;0.50;0.50;;;8.70;99.90;;;;;;5134785;27;20085;-79
2023/12/11 08:36:34;;;;;;;;;;;8.80;99.90;;;;;;5113109;27;20035;-79
2023/12/11 08:39:00;;;;;;;0.40;0.40;;;8.70;99.90;;;;;;5128746;27;20009;-78
2023/12/11 08:41:26;;;;;;;0.45;0.45;;;8.70;99.90;;;;;;5126089;27;20035;-81
2023/12/11 08:43:51;;;;;;;0.50;0.50;;;8.70;99.90;;;;;;5134316;27;20461;-80
2023/12/11 08:46:17;;;;;;;1.55;0.60;;;8.80;99.90;;;;;;5118769;27;20475;-78
2023/12/11 08:48:44;;;;;;;0.40;0.40;;;8.90;99.90;;;;;;5135773;27;20039;-79
2023/12/11 08:51:09;;;;;;;0.40;0.40;;;8.80;99.90;;;;;;5109318;27;20091;-80
2023/12/11 08:53:38;;;;;;;0.30;0.30;;;8.70;99.90;;;;;;5132157;27;20038;-81
2023/12/11 08:56:04;;;;;;;0.30;0.30;;;8.80;99.90;;;;;;5093622;27;20104;-79
2023/12/11 08:58:30;;;;;;;0.32;0.32;;;8.80;99.90;;;;;;5135694;27;20410;-78
2023/12/11 09:00:55;;;;;;;0.35;0.35;;;8.80;99.90;;;;;;5106267;27;20033;-79
2023/12/11 09:03:21;;;;;;;0.40;0.40;;;8.70;99.90;;;;;;5136718;27;20054;-78
2023/12/11 09:05:47;;;;;;;0.50;0.45;;;8.70;99.90;;;;;;5131588;27;20078;-79
2023/12/11 09:08:12;;;;;;;0.50;0.50;;;8.70;99.90;;;;;;5131449;27;20038;-80
2023/12/11 09:10:40;;;;;;;0.70;0.70;;;8.80;99.90;;;;;;5127329;27;20046;-79
2023/12/11 09:13:06;;;;;;;2.45;2.25;;;8.80;99.90;;;;;;5114183;27;20189;-77
2023/12/11 09:15:32;;;;;;;0.32;0.32;;;8.90;99.90;;;;;;5108317;27;20134;-78
2023/12/11 09:17:58;;;;;;;0.60;0.60;;;8.90;99.90;;;;;;5131832;27;20111;-80
2023/12/11 09:20:24;;;;;;;0.40;0.40;;;8.80;99.90;;;;;;5128772;27;20255;-81
2023/12/11 09:22:50;;;;;;;0.60;0.60;;;9.10;99.90;;;;;;5112727;27;20050;-77
2023/12/11 09:25:15;;;;;;;0.50;0.50;;;8.90;99.90;;;;;;5127800;27;20126;-78
2023/12/11 09:27:41;;;;;;;0.40;0.40;;;8.80;99.90;;;;;;5127940;27;20053;-77
2023/12/11 09:30:11;;;;;;;0.70;0.70;;;8.90;99.90;;;;;;5128008;27;20038;-78
2023/12/11 09:32:37;;;;;;;1.13;0.60;;;8.90;99.90;;;;;;5134382;27;20064;-80
2023/12/11 09:35:05;;;;;;;0.50;0.50;;;8.80;99.90;;;;;;5111265;27;20046;-77
2023/12/11 09:37:30;;;;;;;0.32;0.32;;;8.90;99.90;;;;;;5108925;28;20469;-79
2023/12/11 09:39:56;;;;;;;0.55;0.55;;;8.90;99.90;;;;;;5112033;28;20039;-79
2023/12/11 09:42:22;;;;;;;0.70;0.70;;;8.90;99.90;;;;;;5131606;27;20039;-78
2023/12/11 09:44:51;;;;;;;0.30;0.30;;;9.00;99.90;;;;;;5128843;27;20189;-80
2023/12/11 09:47:25;;;;;;;0.40;0.40;;;8.90;99.90;;;;;;5113932;28;20055;-81
2023/12/11 09:49:51;;;;;;;0.40;0.40;;;9.00;99.90;;;;;;5104907;27;20054;-80
2023/12/11 09:52:18;;;;;;;0.60;0.60;;;8.90;99.90;;;;;;5131343;27;20043;-83
2023/12/11 09:54:44;;;;;;;0.50;0.50;;;9.10;99.90;;;;;;5138104;27;20031;-78
2023/12/11 09:57:12;;;;;;;16.52;1.10;;;9.10;99.90;;;;;;5123463;28;20043;-79
2023/12/11 09:59:39;;;;;;;0.40;0.40;;;9.10;99.90;;;;;;5129245;27;20039;-79
2023/12/11 10:02:14;;;;;;;0.40;0.40;;;9.10;99.90;;;;;;5136306;27;20049;-79
2023/12/11 10:05:22;;;;;;;0.40;0.40;;;9.10;99.90;;;;;;5131811;27;20051;-79
2023/12/11 10:07:48;;;;;;;4.65;1.15;;;9.20;99.90;;;;;;5129323;27;20046;-78
2023/12/11 10:10:25;;;;;;;1.95;1.85;;;9.20;99.90;;;;;;5130711;27;20398;-82
2023/12/11 10:12:53;;;;;;;0.43;0.32;;;9.20;99.90;;;;;;5128184;27;20039;-80
2023/12/11 10:15:27;;;;;;;0.40;0.40;;;9.20;99.90;;;;;;5134514;27;20114;-80
2023/12/11 10:18:11;;;;;;;4.13;1.30;;;9.30;99.90;;;;;;5140302;27;20035;-79
2023/12/11 10:20:42;;;;;;;0.40;0.40;;;9.30;99.90;;;;;;5138180;27;20051;-77
2023/12/11 10:23:12;;;;;;;0.82;0.82;;;9.40;99.90;;;;;;5123576;27;20047;-83
2023/12/11 10:25:41;;;;;;;0.40;0.40;;;9.30;99.90;;;;;;5132749;27;20049;-81
2023/12/11 10:28:10;;;;;;;0.40;0.40;;;9.20;99.90;;;;;;5111299;27;20104;-80
2023/12/11 10:31:02;;;;;;;0.60;0.60;;;9.20;99.90;;;;;;5135436;27;20039;-78
2023/12/11 10:33:31;;;;;;;0.40;0.40;;;9.20;99.90;;;;;;5139627;27;20051;-84
2023/12/11 10:36:23;;;;;;;0.40;0.40;;;9.00;99.90;;;;;;5138982;27;20047;-77
2023/12/11 10:38:51;;;;;;;0.57;0.57;;;9.10;99.90;;;;;;5118491;27;20054;-76
2023/12/11 10:41:26;;;;;;;0.32;0.32;;;9.00;99.90;;;;;;5118920;27;20040;-79
2023/12/11 10:43:52;;;;;;;0.50;0.50;;;9.10;99.90;;;;;;5133618;27;20038;-81
2023/12/11 10:46:18;;;;;;;0.40;0.40;;;9.20;99.90;;;;;;5114810;27;20043;-82
2023/12/11 10:48:45;;;;;;;0.40;0.40;;;9.10;99.90;;;;;;5135244;27;20089;-82
2023/12/11 10:51:11;;;;;;;0.40;0.40;;;9.10;99.90;;;;;;5125152;27;20069;-82
2023/12/11 10:53:37;;;;;;;0.40;0.40;;;9.20;99.90;;;;;;5123742;27;20039;-81
2023/12/11 10:56:03;;;;;;;2.38;1.02;;;9.10;99.90;;;;;;5112225;27;20039;-79
2023/12/11 10:58:29;;;;;;;0.40;0.40;;;9.20;99.90;;;;;;5134053;27;20491;-80
2023/12/11 11:00:57;;;;;;;0.30;0.30;;;9.10;99.90;;;;;;5105001;27;20060;-81
2023/12/11 11:03:24;;;;;;;0.30;0.30;;;9.20;99.90;;;;;;5141750;27;20039;-81
2023/12/11 11:05:52;;;;;;;0.20;0.20;;;9.20;99.90;;;;;;5121719;27;20108;-81
2023/12/11 11:08:36;;;;;;;0.40;0.40;;;9.20;99.90;;;;;;5129135;27;20035;-78
2023/12/11 11:11:24;;;;;;;0.50;0.50;;;9.40;99.90;;;;;;5119536;27;20392;-81
2023/12/11 11:14:05;;;;;;;0.40;0.40;;;9.30;99.90;;;;;;5109491;27;20511;-80
2023/12/11 11:16:57;;;;;;;0.40;0.40;;;9.30;99.90;;;;;;5139245;27;20119;-82
2023/12/11 11:19:24;;;;;;;0.40;0.40;;;9.30;99.90;;;;;;5142686;27;20039;-81
2023/12/11 11:22:06;;;;;;;0.40;0.40;;;9.20;99.90;;;;;;5131811;27;20042;-82
2023/12/11 11:24:34;;;;;;;1.05;1.05;;;9.30;99.90;;;;;;5138353;27;20046;-83
2023/12/11 11:27:04;;;;;;;0.40;0.40;;;9.20;99.90;;;;;;5128229;27;20042;-79
2023/12/11 11:29:43;;;;;;;0.43;0.43;;;9.20;99.90;;;;;;5138667;27;20043;-82
2023/12/11 11:32:11;;;;;;;0.40;0.40;;;9.20;99.90;;;;;;5137706;27;20491;-81
2023/12/11 11:34:39;;;;;;;0.47;0.47;;;9.20;99.90;;;;;;5122004;27;20142;-81
2023/12/11 11:37:06;;;;;;;1.17;1.17;;;9.30;99.90;;;;;;5134872;27;20133;-83
2023/12/11 11:39:57;;;;;;;0.30;0.30;;;9.20;99.90;;;;;;5138937;27;20042;-80
2023/12/11 11:42:24;;;;;;;0.50;0.50;;;9.30;99.90;;;;;;5134736;27;20067;-82
2023/12/11 11:44:57;;;;;;;0.32;0.32;;;9.20;99.90;;;;;;5135272;27;20042;-81
2023/12/11 11:47:24;;;;;;;0.80;0.80;;;9.10;99.90;;;;;;5136189;27;20046;-80
2023/12/11 11:49:50;;;;;;;0.40;0.40;;;9.10;99.90;;;;;;5132695;27;20093;-80
2023/12/11 11:52:30;;;;;;;0.40;0.40;;;9.00;99.90;;;;;;5132625;27;20043;-82
2023/12/11 11:55:06;;;;;;;0.30;0.30;;;9.20;99.90;;;;;;5108747;27;20043;-78
2023/12/11 11:57:33;;;;;;;0.40;0.40;;;9.20;99.90;;;;;;5136502;27;20071;-78
2023/12/11 11:59:59;;;;;;;0.65;0.65;;;9.10;99.90;;;;;;5138211;27;20038;-80
2023/12/11 12:02:27;;;;;;;0.57;0.57;;;8.70;99.90;;;;;;5145292;27;20043;-78
2023/12/11 12:04:53;;;;;;;0.50;0.50;;;9.10;99.90;;;;;;5139681;27;20043;-82
2023/12/11 12:07:19;;;;;;;0.47;0.47;;;9.00;99.90;;;;;;5136013;27;20045;-83
2023/12/11 12:09:50;;;;;;;0.50;0.50;;;9.30;99.90;;;;;;5133714;27;20035;-82
2023/12/11 12:12:16;;;;;;;0.30;0.30;;;9.20;99.90;;;;;;5111473;27;20042;-79
2023/12/11 12:14:43;;;;;;;1.08;0.60;;;9.20;99.90;;;;;;5138508;27;20385;-81
2023/12/11 12:17:10;;;;;;;0.50;0.50;;;9.40;99.90;;;;;;5122243;27;20089;-79
2023/12/11 12:19:36;;;;;;;0.30;0.30;;;9.20;99.90;;;;;;5133785;27;20071;-80
2023/12/11 12:22:02;;;;;;;0.40;0.40;;;9.10;99.90;;;;;;5133693;27;20035;-77
2023/12/11 12:24:29;;;;;;;0.50;0.50;;;9.00;99.90;;;;;;5069051;27;20098;-84
2023/12/11 12:27:00;;;;;;;0.40;0.40;;;9.30;99.90;;;;;;5131065;27;20058;-81
2023/12/11 12:29:27;;;;;;;0.30;0.30;;;9.30;99.90;;;;;;5131786;27;20046;-82
2023/12/11 12:31:54;;;;;;;0.40;0.40;;;9.30;99.90;;;;;;5132011;27;20047;-79
2023/12/11 12:34:22;;;;;;;0.40;0.40;;;9.20;99.90;;;;;;5114596;27;20571;-80
2023/12/11 12:36:47;;;;;;;1.08;1.05;;;9.30;99.90;;;;;;5113922;27;20031;-79
2023/12/11 12:39:17;;;;;;;0.40;0.40;;;9.20;99.90;;;;;;5131393;27;20389;-80
2023/12/11 12:41:43;;;;;;;0.40;0.40;;;9.00;99.90;;;;;;5114784;27;20050;-80
2023/12/11 12:44:09;;;;;;;4.03;2.38;;;9.00;99.90;;;;;;5132108;27;20039;-84
2023/12/11 12:46:39;;;;;;;0.30;0.30;;;9.00;99.90;;;;;;5140504;27;20023;-79
2023/12/11 12:49:17;;;;;;;0.30;0.30;;;8.90;99.90;;;;;;5130813;27;20050;-81
2023/12/11 12:51:55;;;;;;;0.30;0.30;;;8.70;99.90;;;;;;5131627;27;20038;-78
2023/12/11 12:54:21;;;;;;;0.82;0.82;;;8.60;99.90;;;;;;5136865;27;20451;-80
2023/12/11 12:56:55;;;;;;;;;;;8.70;99.90;;;;;;5100345;27;20039;-79
2023/12/11 12:59:21;;;;;;;1.75;1.65;;;8.30;99.90;;;;;;5133328;27;19936;-80